sensor_id;sensor_type;location;lat;lon;timestamp;P1;durP1;ratioP1;P2;durP2;ratioP2
1885;SDS011;943;51.568;6.998;2023-03-01T00:01:43;11.30;;;8.97;;
1885;SDS011;943;51.568;6.998;2023-03-01T00:04:11;12.80;;;8.43;;
1885;SDS011;943;51.568;6.998;2023-03-01T00:06:39;13.77;;;10.37;;
1885;SDS011;943;51.568;6.998;2023-03-01T00:09:13;15.57;;;10.00;;
1885;SDS011;943;51.568;6.998;2023-03-01T00:11:43;12.63;;;9.13;;
1885;SDS011;943;51.568;6.998;2023-03-01T00:14:12;10.70;;;9.10;;
1885;SDS011;943;51.568;6.998;2023-03-01T00:16:43;12.20;;;8.40;;
1885;SDS011;943;51.568;6.998;2023-03-01T00:19:14;9.43;;;8.33;;
1885;SDS011;943;51.568;6.998;2023-03-01T00:21:46;10.17;;;7.90;;
1885;SDS011;943;51.568;6.998;2023-03-01T00:24:15;10.10;;;8.03;;
1885;SDS011;943;51.568;6.998;2023-03-01T00:26:43;12.53;;;8.90;;
1885;SDS011;943;51.568;6.998;2023-03-01T00:29:11;14.40;;;9.30;;
1885;SDS011;943;51.568;6.998;2023-03-01T00:31:39;11.67;;;9.23;;
1885;SDS011;943;51.568;6.998;2023-03-01T00:34:07;12.27;;;8.10;;
1885;SDS011;943;51.568;6.998;2023-03-01T00:36:36;10.57;;;8.10;;
1885;SDS011;943;51.568;6.998;2023-03-01T00:39:09;14.17;;;9.50;;
1885;SDS011;943;51.568;6.998;2023-03-01T00:41:42;12.77;;;7.90;;
1885;SDS011;943;51.568;6.998;2023-03-01T00:44:10;9.67;;;7.93;;
1885;SDS011;943;51.568;6.998;2023-03-01T00:46:38;13.53;;;8.53;;
1885;SDS011;943;51.568;6.998;2023-03-01T00:49:07;11.60;;;7.90;;
1885;SDS011;943;51.568;6.998;2023-03-01T00:51:35;11.50;;;8.50;;
1885;SDS011;943;51.568;6.998;2023-03-01T00:54:03;12.63;;;8.97;;
1885;SDS011;943;51.568;6.998;2023-03-01T00:56:31;11.37;;;8.20;;
1885;SDS011;943;51.568;6.998;2023-03-01T00:58:59;11.63;;;8.97;;
1885;SDS011;943;51.568;6.998;2023-03-01T01:01:29;12.13;;;9.03;;
1885;SDS011;943;51.568;6.998;2023-03-01T01:04:02;15.13;;;10.57;;
1885;SDS011;943;51.568;6.998;2023-03-01T01:06:43;12.43;;;9.13;;
1885;SDS011;943;51.568;6.998;2023-03-01T01:09:14;11.13;;;8.30;;
1885;SDS011;943;51.568;6.998;2023-03-01T01:11:46;12.80;;;8.50;;
1885;SDS011;943;51.568;6.998;2023-03-01T01:14:18;12.63;;;9.00;;
1885;SDS011;943;51.568;6.998;2023-03-01T01:16:47;11.37;;;8.70;;
1885;SDS011;943;51.568;6.998;2023-03-01T01:19:16;16.03;;;8.90;;
1885;SDS011;943;51.568;6.998;2023-03-01T01:21:44;12.80;;;9.60;;
1885;SDS011;943;51.568;6.998;2023-03-01T01:24:12;13.77;;;10.03;;
1885;SDS011;943;51.568;6.998;2023-03-01T01:26:40;13.03;;;10.00;;
1885;SDS011;943;51.568;6.998;2023-03-01T01:29:09;9.03;;;8.10;;
1885;SDS011;943;51.568;6.998;2023-03-01T01:31:38;10.73;;;8.17;;
1885;SDS011;943;51.568;6.998;2023-03-01T01:34:12;13.27;;;8.57;;
1885;SDS011;943;51.568;6.998;2023-03-01T01:36:52;13.07;;;9.07;;
1885;SDS011;943;51.568;6.998;2023-03-01T01:39:21;14.70;;;9.17;;
1885;SDS011;943;51.568;6.998;2023-03-01T01:41:49;13.37;;;9.37;;
1885;SDS011;943;51.568;6.998;2023-03-01T01:44:23;11.30;;;8.57;;
1885;SDS011;943;51.568;6.998;2023-03-01T01:47:05;12.93;;;9.30;;
1885;SDS011;943;51.568;6.998;2023-03-01T01:49:49;13.37;;;9.60;;
1885;SDS011;943;51.568;6.998;2023-03-01T01:52:24;10.30;;;8.10;;
1885;SDS011;943;51.568;6.998;2023-03-01T01:55:04;15.10;;;9.00;;
1885;SDS011;943;51.568;6.998;2023-03-01T01:57:40;11.30;;;9.30;;
1885;SDS011;943;51.568;6.998;2023-03-01T02:00:21;11.83;;;8.97;;
1885;SDS011;943;51.568;6.998;2023-03-01T02:02:56;9.97;;;8.43;;
1885;SDS011;943;51.568;6.998;2023-03-01T02:05:38;14.23;;;9.40;;
1885;SDS011;943;51.568;6.998;2023-03-01T02:08:39;12.80;;;7.73;;
1885;SDS011;943;51.568;6.998;2023-03-01T02:11:10;12.03;;;8.90;;
1885;SDS011;943;51.568;6.998;2023-03-01T02:13:41;10.27;;;8.07;;
1885;SDS011;943;51.568;6.998;2023-03-01T02:16:14;14.07;;;8.27;;
1885;SDS011;943;51.568;6.998;2023-03-01T02:18:44;11.47;;;7.97;;
1885;SDS011;943;51.568;6.998;2023-03-01T02:21:19;14.47;;;8.20;;
1885;SDS011;943;51.568;6.998;2023-03-01T02:24:38;14.33;;;9.23;;
1885;SDS011;943;51.568;6.998;2023-03-01T02:27:58;9.67;;;7.67;;
1885;SDS011;943;51.568;6.998;2023-03-01T02:30:45;12.60;;;9.17;;
1885;SDS011;943;51.568;6.998;2023-03-01T02:33:36;17.67;;;8.80;;
1885;SDS011;943;51.568;6.998;2023-03-01T02:36:30;13.97;;;8.93;;
1885;SDS011;943;51.568;6.998;2023-03-01T02:39:20;10.67;;;8.80;;
1885;SDS011;943;51.568;6.998;2023-03-01T02:42:15;13.20;;;8.53;;
1885;SDS011;943;51.568;6.998;2023-03-01T02:44:56;12.43;;;9.90;;
1885;SDS011;943;51.568;6.998;2023-03-01T02:47:24;10.67;;;8.33;;
1885;SDS011;943;51.568;6.998;2023-03-01T02:49:52;10.33;;;9.30;;
1885;SDS011;943;51.568;6.998;2023-03-01T02:55:27;15.73;;;9.80;;
1885;SDS011;943;51.568;6.998;2023-03-01T02:57:56;13.80;;;9.67;;
1885;SDS011;943;51.568;6.998;2023-03-01T03:00:40;13.77;;;9.87;;
1885;SDS011;943;51.568;6.998;2023-03-01T03:03:19;11.30;;;8.93;;
1885;SDS011;943;51.568;6.998;2023-03-01T03:05:48;15.10;;;9.67;;
1885;SDS011;943;51.568;6.998;2023-03-01T03:08:16;14.17;;;9.10;;
1885;SDS011;943;51.568;6.998;2023-03-01T03:10:51;12.13;;;9.27;;
1885;SDS011;943;51.568;6.998;2023-03-01T03:13:20;14.10;;;9.17;;
1885;SDS011;943;51.568;6.998;2023-03-01T03:15:49;12.43;;;9.53;;
1885;SDS011;943;51.568;6.998;2023-03-01T03:18:17;12.60;;;8.33;;
1885;SDS011;943;51.568;6.998;2023-03-01T03:20:45;12.37;;;9.43;;
1885;SDS011;943;51.568;6.998;2023-03-01T03:23:19;13.17;;;9.97;;
1885;SDS011;943;51.568;6.998;2023-03-01T03:25:49;13.93;;;8.63;;
1885;SDS011;943;51.568;6.998;2023-03-01T03:28:18;12.53;;;9.57;;
1885;SDS011;943;51.568;6.998;2023-03-01T03:30:47;14.43;;;9.50;;
1885;SDS011;943;51.568;6.998;2023-03-01T03:33:16;14.63;;;8.83;;
1885;SDS011;943;51.568;6.998;2023-03-01T03:35:45;11.80;;;9.50;;
1885;SDS011;943;51.568;6.998;2023-03-01T03:38:17;14.90;;;9.87;;
1885;SDS011;943;51.568;6.998;2023-03-01T03:40:55;13.20;;;9.50;;
1885;SDS011;943;51.568;6.998;2023-03-01T03:43:35;13.50;;;9.50;;
1885;SDS011;943;51.568;6.998;2023-03-01T03:46:10;14.67;;;10.10;;
1885;SDS011;943;51.568;6.998;2023-03-01T03:48:40;13.63;;;9.57;;
1885;SDS011;943;51.568;6.998;2023-03-01T03:51:13;12.87;;;9.63;;
1885;SDS011;943;51.568;6.998;2023-03-01T03:53:44;14.20;;;10.07;;
1885;SDS011;943;51.568;6.998;2023-03-01T03:56:13;14.97;;;8.50;;
1885;SDS011;943;51.568;6.998;2023-03-01T03:58:44;15.60;;;10.90;;
1885;SDS011;943;51.568;6.998;2023-03-01T04:01:14;13.57;;;9.40;;
1885;SDS011;943;51.568;6.998;2023-03-01T04:03:41;13.67;;;9.23;;
1885;SDS011;943;51.568;6.998;2023-03-01T04:06:13;12.60;;;10.30;;
1885;SDS011;943;51.568;6.998;2023-03-01T04:08:41;17.00;;;11.30;;
1885;SDS011;943;51.568;6.998;2023-03-01T04:11:09;14.70;;;9.40;;
1885;SDS011;943;51.568;6.998;2023-03-01T04:13:55;14.37;;;9.60;;
1885;SDS011;943;51.568;6.998;2023-03-01T04:16:25;12.93;;;9.73;;
1885;SDS011;943;51.568;6.998;2023-03-01T04:18:54;13.20;;;9.20;;
1885;SDS011;943;51.568;6.998;2023-03-01T04:21:23;12.83;;;9.73;;
1885;SDS011;943;51.568;6.998;2023-03-01T04:23:51;18.73;;;10.77;;
1885;SDS011;943;51.568;6.998;2023-03-01T04:26:19;14.30;;;10.13;;
1885;SDS011;943;51.568;6.998;2023-03-01T04:28:47;13.20;;;9.00;;
1885;SDS011;943;51.568;6.998;2023-03-01T04:31:17;14.83;;;9.13;;
1885;SDS011;943;51.568;6.998;2023-03-01T04:33:49;15.87;;;10.60;;
1885;SDS011;943;51.568;6.998;2023-03-01T04:36:24;13.03;;;9.03;;
1885;SDS011;943;51.568;6.998;2023-03-01T04:38:57;15.53;;;9.47;;
1885;SDS011;943;51.568;6.998;2023-03-01T04:41:25;14.00;;;9.33;;
1885;SDS011;943;51.568;6.998;2023-03-01T04:43:53;15.70;;;10.13;;
1885;SDS011;943;51.568;6.998;2023-03-01T04:46:21;15.40;;;9.70;;
1885;SDS011;943;51.568;6.998;2023-03-01T04:48:49;15.33;;;10.40;;
1885;SDS011;943;51.568;6.998;2023-03-01T04:51:17;14.20;;;10.07;;
1885;SDS011;943;51.568;6.998;2023-03-01T04:53:45;14.00;;;10.17;;
1885;SDS011;943;51.568;6.998;2023-03-01T04:56:14;16.30;;;9.57;;
1885;SDS011;943;51.568;6.998;2023-03-01T04:58:45;15.40;;;11.10;;
1885;SDS011;943;51.568;6.998;2023-03-01T05:01:16;11.37;;;9.37;;
1885;SDS011;943;51.568;6.998;2023-03-01T05:03:48;16.60;;;10.63;;
1885;SDS011;943;51.568;6.998;2023-03-01T05:06:18;15.90;;;11.30;;
1885;SDS011;943;51.568;6.998;2023-03-01T05:08:47;14.50;;;10.53;;
1885;SDS011;943;51.568;6.998;2023-03-01T05:11:15;18.10;;;11.20;;
1885;SDS011;943;51.568;6.998;2023-03-01T05:13:43;14.67;;;10.23;;
1885;SDS011;943;51.568;6.998;2023-03-01T05:16:11;14.87;;;9.80;;
1885;SDS011;943;51.568;6.998;2023-03-01T05:18:40;16.87;;;9.97;;
1885;SDS011;943;51.568;6.998;2023-03-01T05:21:11;15.33;;;9.87;;
1885;SDS011;943;51.568;6.998;2023-03-01T05:23:43;13.33;;;9.87;;
1885;SDS011;943;51.568;6.998;2023-03-01T05:26:13;16.20;;;11.20;;
1885;SDS011;943;51.568;6.998;2023-03-01T05:28:54;16.80;;;11.23;;
1885;SDS011;943;51.568;6.998;2023-03-01T05:31:26;13.97;;;10.70;;
1885;SDS011;943;51.568;6.998;2023-03-01T05:33:59;16.77;;;10.57;;
1885;SDS011;943;51.568;6.998;2023-03-01T05:36:28;16.50;;;10.50;;
1885;SDS011;943;51.568;6.998;2023-03-01T05:38:56;12.80;;;11.10;;
1885;SDS011;943;51.568;6.998;2023-03-01T05:41:24;16.90;;;11.00;;
1885;SDS011;943;51.568;6.998;2023-03-01T05:43:52;16.63;;;10.50;;
1885;SDS011;943;51.568;6.998;2023-03-01T05:46:20;18.23;;;10.90;;
1885;SDS011;943;51.568;6.998;2023-03-01T05:48:51;17.03;;;11.73;;
1885;SDS011;943;51.568;6.998;2023-03-01T05:51:19;16.77;;;10.60;;
1885;SDS011;943;51.568;6.998;2023-03-01T05:53:47;15.00;;;11.40;;
1885;SDS011;943;51.568;6.998;2023-03-01T05:56:15;15.07;;;11.53;;
1885;SDS011;943;51.568;6.998;2023-03-01T05:58:43;16.83;;;12.43;;
1885;SDS011;943;51.568;6.998;2023-03-01T06:01:11;16.63;;;9.20;;
1885;SDS011;943;51.568;6.998;2023-03-01T06:03:40;15.47;;;10.70;;
1885;SDS011;943;51.568;6.998;2023-03-01T06:06:08;13.83;;;10.00;;
1885;SDS011;943;51.568;6.998;2023-03-01T06:08:36;14.77;;;10.40;;
1885;SDS011;943;51.568;6.998;2023-03-01T06:11:04;15.70;;;11.50;;
1885;SDS011;943;51.568;6.998;2023-03-01T06:13:33;15.70;;;12.17;;
1885;SDS011;943;51.568;6.998;2023-03-01T06:16:04;17.30;;;10.40;;
1885;SDS011;943;51.568;6.998;2023-03-01T06:18:34;12.70;;;10.10;;
1885;SDS011;943;51.568;6.998;2023-03-01T06:21:04;19.90;;;12.30;;
1885;SDS011;943;51.568;6.998;2023-03-01T06:23:36;13.50;;;10.20;;
1885;SDS011;943;51.568;6.998;2023-03-01T06:26:07;20.33;;;11.60;;
1885;SDS011;943;51.568;6.998;2023-03-01T06:28:38;15.80;;;10.40;;
1885;SDS011;943;51.568;6.998;2023-03-01T06:31:08;13.77;;;9.80;;
1885;SDS011;943;51.568;6.998;2023-03-01T06:33:40;18.97;;;11.23;;
1885;SDS011;943;51.568;6.998;2023-03-01T06:36:12;13.23;;;10.63;;
1885;SDS011;943;51.568;6.998;2023-03-01T06:38:47;14.10;;;10.63;;
1885;SDS011;943;51.568;6.998;2023-03-01T06:41:17;17.73;;;10.63;;
1885;SDS011;943;51.568;6.998;2023-03-01T06:43:48;14.30;;;10.37;;
1885;SDS011;943;51.568;6.998;2023-03-01T06:46:19;15.03;;;11.77;;
1885;SDS011;943;51.568;6.998;2023-03-01T06:48:50;15.70;;;10.53;;
1885;SDS011;943;51.568;6.998;2023-03-01T06:51:20;12.57;;;9.73;;
1885;SDS011;943;51.568;6.998;2023-03-01T06:53:51;15.23;;;10.83;;
1885;SDS011;943;51.568;6.998;2023-03-01T06:56:20;15.70;;;11.43;;
1885;SDS011;943;51.568;6.998;2023-03-01T06:58:48;15.00;;;9.50;;
1885;SDS011;943;51.568;6.998;2023-03-01T07:01:20;13.40;;;10.70;;
1885;SDS011;943;51.568;6.998;2023-03-01T07:03:50;12.37;;;9.20;;
1885;SDS011;943;51.568;6.998;2023-03-01T07:06:21;15.87;;;11.33;;
1885;SDS011;943;51.568;6.998;2023-03-01T07:08:59;17.40;;;11.23;;
1885;SDS011;943;51.568;6.998;2023-03-01T07:11:27;14.93;;;10.13;;
1885;SDS011;943;51.568;6.998;2023-03-01T07:13:54;11.60;;;8.47;;
1885;SDS011;943;51.568;6.998;2023-03-01T07:16:22;19.80;;;10.97;;
1885;SDS011;943;51.568;6.998;2023-03-01T07:18:50;16.10;;;11.47;;
1885;SDS011;943;51.568;6.998;2023-03-01T07:21:18;14.20;;;10.00;;
1885;SDS011;943;51.568;6.998;2023-03-01T07:23:47;17.70;;;12.40;;
1885;SDS011;943;51.568;6.998;2023-03-01T07:26:15;13.87;;;8.43;;
1885;SDS011;943;51.568;6.998;2023-03-01T07:28:43;13.20;;;9.10;;
1885;SDS011;943;51.568;6.998;2023-03-01T07:31:11;16.57;;;9.50;;
1885;SDS011;943;51.568;6.998;2023-03-01T07:33:40;14.77;;;10.17;;
1885;SDS011;943;51.568;6.998;2023-03-01T07:36:08;17.53;;;9.30;;
1885;SDS011;943;51.568;6.998;2023-03-01T07:38:36;11.70;;;8.40;;
1885;SDS011;943;51.568;6.998;2023-03-01T07:41:04;12.57;;;8.70;;
1885;SDS011;943;51.568;6.998;2023-03-01T07:43:32;14.40;;;9.50;;
1885;SDS011;943;51.568;6.998;2023-03-01T07:46:05;11.30;;;7.80;;
1885;SDS011;943;51.568;6.998;2023-03-01T07:48:33;12.23;;;8.53;;
1885;SDS011;943;51.568;6.998;2023-03-01T07:51:02;10.73;;;7.63;;
1885;SDS011;943;51.568;6.998;2023-03-01T07:53:34;14.60;;;10.20;;
1885;SDS011;943;51.568;6.998;2023-03-01T07:56:06;14.90;;;9.30;;
1885;SDS011;943;51.568;6.998;2023-03-01T07:58:40;11.30;;;7.33;;
1885;SDS011;943;51.568;6.998;2023-03-01T08:01:15;13.37;;;9.03;;
1885;SDS011;943;51.568;6.998;2023-03-01T08:03:47;13.40;;;9.37;;
1885;SDS011;943;51.568;6.998;2023-03-01T08:06:16;12.47;;;9.20;;
1885;SDS011;943;51.568;6.998;2023-03-01T08:08:45;13.40;;;8.47;;
1885;SDS011;943;51.568;6.998;2023-03-01T08:11:14;11.50;;;8.60;;
1885;SDS011;943;51.568;6.998;2023-03-01T08:13:47;14.73;;;8.60;;
1885;SDS011;943;51.568;6.998;2023-03-01T08:16:19;11.50;;;8.00;;
1885;SDS011;943;51.568;6.998;2023-03-01T08:18:47;12.37;;;7.83;;
1885;SDS011;943;51.568;6.998;2023-03-01T08:21:16;12.70;;;9.77;;
1885;SDS011;943;51.568;6.998;2023-03-01T08:23:45;12.30;;;8.33;;
1885;SDS011;943;51.568;6.998;2023-03-01T08:26:14;13.43;;;7.87;;
1885;SDS011;943;51.568;6.998;2023-03-01T08:28:48;12.10;;;8.63;;
1885;SDS011;943;51.568;6.998;2023-03-01T08:31:24;13.37;;;9.80;;
1885;SDS011;943;51.568;6.998;2023-03-01T08:34:08;11.27;;;8.73;;
1885;SDS011;943;51.568;6.998;2023-03-01T08:36:43;13.80;;;11.27;;
1885;SDS011;943;51.568;6.998;2023-03-01T08:39:14;13.53;;;9.20;;
1885;SDS011;943;51.568;6.998;2023-03-01T08:41:46;16.90;;;10.00;;
1885;SDS011;943;51.568;6.998;2023-03-01T08:44:15;14.40;;;11.13;;
1885;SDS011;943;51.568;6.998;2023-03-01T08:46:44;15.83;;;11.03;;
1885;SDS011;943;51.568;6.998;2023-03-01T08:49:17;17.23;;;11.47;;
1885;SDS011;943;51.568;6.998;2023-03-01T08:51:47;16.00;;;12.30;;
1885;SDS011;943;51.568;6.998;2023-03-01T08:54:16;15.30;;;9.87;;
1885;SDS011;943;51.568;6.998;2023-03-01T08:56:48;14.17;;;8.33;;
1885;SDS011;943;51.568;6.998;2023-03-01T08:59:16;18.83;;;13.53;;
1885;SDS011;943;51.568;6.998;2023-03-01T09:01:46;14.53;;;11.10;;
1885;SDS011;943;51.568;6.998;2023-03-01T09:04:14;15.70;;;10.53;;
1885;SDS011;943;51.568;6.998;2023-03-01T09:06:44;10.87;;;9.20;;
1885;SDS011;943;51.568;6.998;2023-03-01T09:09:13;12.53;;;8.60;;
1885;SDS011;943;51.568;6.998;2023-03-01T09:11:44;10.17;;;6.20;;
1885;SDS011;943;51.568;6.998;2023-03-01T09:14:13;9.80;;;7.10;;
1885;SDS011;943;51.568;6.998;2023-03-01T09:16:42;9.70;;;7.57;;
1885;SDS011;943;51.568;6.998;2023-03-01T09:19:10;7.97;;;5.03;;
1885;SDS011;943;51.568;6.998;2023-03-01T09:21:38;10.10;;;7.57;;
1885;SDS011;943;51.568;6.998;2023-03-01T09:24:12;11.57;;;7.70;;
1885;SDS011;943;51.568;6.998;2023-03-01T09:26:41;11.83;;;8.03;;
1885;SDS011;943;51.568;6.998;2023-03-01T09:29:15;14.33;;;8.33;;
1885;SDS011;943;51.568;6.998;2023-03-01T09:31:44;10.90;;;8.30;;
1885;SDS011;943;51.568;6.998;2023-03-01T09:34:12;11.53;;;8.20;;
1885;SDS011;943;51.568;6.998;2023-03-01T09:36:42;10.57;;;7.83;;
1885;SDS011;943;51.568;6.998;2023-03-01T09:39:10;12.20;;;8.20;;
1885;SDS011;943;51.568;6.998;2023-03-01T09:41:42;10.67;;;6.10;;
1885;SDS011;943;51.568;6.998;2023-03-01T09:44:31;12.77;;;8.10;;
1885;SDS011;943;51.568;6.998;2023-03-01T09:47:24;13.90;;;8.00;;
1885;SDS011;943;51.568;6.998;2023-03-01T09:50:18;9.90;;;7.13;;
1885;SDS011;943;51.568;6.998;2023-03-01T09:53:02;14.30;;;8.27;;
1885;SDS011;943;51.568;6.998;2023-03-01T09:55:53;11.97;;;7.90;;
1885;SDS011;943;51.568;6.998;2023-03-01T10:02:47;9.20;;;6.50;;
1885;SDS011;943;51.568;6.998;2023-03-01T10:11:44;12.47;;;6.63;;
1885;SDS011;943;51.568;6.998;2023-03-01T10:14:35;10.27;;;7.80;;
1885;SDS011;943;51.568;6.998;2023-03-01T10:17:30;15.00;;;7.63;;
1885;SDS011;943;51.568;6.998;2023-03-01T10:20:53;12.90;;;7.80;;
1885;SDS011;943;51.568;6.998;2023-03-01T10:23:38;11.03;;;7.90;;
1885;SDS011;943;51.568;6.998;2023-03-01T10:26:20;12.57;;;7.30;;
1885;SDS011;943;51.568;6.998;2023-03-01T10:29:24;10.77;;;6.87;;
1885;SDS011;943;51.568;6.998;2023-03-01T10:32:27;7.23;;;4.97;;
1885;SDS011;943;51.568;6.998;2023-03-01T10:34:56;9.77;;;6.27;;
1885;SDS011;943;51.568;6.998;2023-03-01T10:37:25;12.23;;;6.30;;
1885;SDS011;943;51.568;6.998;2023-03-01T10:40:03;14.63;;;6.97;;
1885;SDS011;943;51.568;6.998;2023-03-01T10:42:46;12.83;;;8.40;;
1885;SDS011;943;51.568;6.998;2023-03-01T10:48:10;14.43;;;7.90;;
1885;SDS011;943;51.568;6.998;2023-03-01T10:53:28;12.90;;;7.57;;
1885;SDS011;943;51.568;6.998;2023-03-01T10:56:08;11.27;;;7.27;;
1885;SDS011;943;51.568;6.998;2023-03-01T10:59:01;9.10;;;6.90;;
1885;SDS011;943;51.568;6.998;2023-03-01T11:02:03;8.83;;;6.10;;
1885;SDS011;943;51.568;6.998;2023-03-01T11:05:01;11.77;;;7.03;;
1885;SDS011;943;51.568;6.998;2023-03-01T11:07:57;8.33;;;6.63;;
1885;SDS011;943;51.568;6.998;2023-03-01T11:10:31;11.03;;;8.00;;
1885;SDS011;943;51.568;6.998;2023-03-01T11:13:21;12.60;;;8.07;;
1885;SDS011;943;51.568;6.998;2023-03-01T11:16:03;11.70;;;8.20;;
1885;SDS011;943;51.568;6.998;2023-03-01T11:18:39;12.13;;;7.87;;
1885;SDS011;943;51.568;6.998;2023-03-01T11:21:14;8.33;;;5.63;;
1885;SDS011;943;51.568;6.998;2023-03-01T11:23:43;8.40;;;6.03;;
1885;SDS011;943;51.568;6.998;2023-03-01T11:26:13;9.47;;;5.73;;
1885;SDS011;943;51.568;6.998;2023-03-01T11:28:48;11.90;;;8.50;;
1885;SDS011;943;51.568;6.998;2023-03-01T11:31:27;22.50;;;12.63;;
1885;SDS011;943;51.568;6.998;2023-03-01T11:34:00;11.63;;;7.37;;
1885;SDS011;943;51.568;6.998;2023-03-01T11:37:07;11.77;;;8.07;;
1885;SDS011;943;51.568;6.998;2023-03-01T11:40:34;15.17;;;8.90;;
1885;SDS011;943;51.568;6.998;2023-03-01T11:52:59;9.00;;;6.07;;
1885;SDS011;943;51.568;6.998;2023-03-01T11:55:56;13.87;;;7.67;;
1885;SDS011;943;51.568;6.998;2023-03-01T11:59:08;11.50;;;9.10;;
1885;SDS011;943;51.568;6.998;2023-03-01T12:08:35;9.80;;;7.57;;
1885;SDS011;943;51.568;6.998;2023-03-01T12:11:33;10.17;;;7.10;;
1885;SDS011;943;51.568;6.998;2023-03-01T12:14:55;9.30;;;5.03;;
1885;SDS011;943;51.568;6.998;2023-03-01T12:24:48;10.93;;;6.97;;
1885;SDS011;943;51.568;6.998;2023-03-01T12:34:19;8.47;;;5.50;;
1885;SDS011;943;51.568;6.998;2023-03-01T12:37:42;7.00;;;5.03;;
1885;SDS011;943;51.568;6.998;2023-03-01T12:41:05;10.00;;;6.70;;
1885;SDS011;943;51.568;6.998;2023-03-01T12:50:25;9.87;;;6.17;;
1885;SDS011;943;51.568;6.998;2023-03-01T12:53:25;10.93;;;6.33;;
1885;SDS011;943;51.568;6.998;2023-03-01T12:56:13;15.03;;;6.80;;
1885;SDS011;943;51.568;6.998;2023-03-01T13:15:35;11.80;;;5.93;;
1885;SDS011;943;51.568;6.998;2023-03-01T13:28:50;10.53;;;7.40;;
1885;SDS011;943;51.568;6.998;2023-03-01T13:39:13;11.23;;;6.60;;
1885;SDS011;943;51.568;6.998;2023-03-01T13:42:28;9.97;;;6.17;;
1885;SDS011;943;51.568;6.998;2023-03-01T13:45:17;9.30;;;6.70;;
1885;SDS011;943;51.568;6.998;2023-03-01T13:48:09;10.87;;;7.37;;
1885;SDS011;943;51.568;6.998;2023-03-01T13:50:59;10.60;;;7.50;;
1885;SDS011;943;51.568;6.998;2023-03-01T13:53:45;11.30;;;7.23;;
1885;SDS011;943;51.568;6.998;2023-03-01T13:56:19;8.20;;;5.90;;
1885;SDS011;943;51.568;6.998;2023-03-01T13:59:13;11.23;;;7.83;;
1885;SDS011;943;51.568;6.998;2023-03-01T14:01:53;13.47;;;7.23;;
1885;SDS011;943;51.568;6.998;2023-03-01T14:04:29;13.10;;;7.77;;
1885;SDS011;943;51.568;6.998;2023-03-01T14:07:11;12.33;;;8.80;;
1885;SDS011;943;51.568;6.998;2023-03-01T14:09:48;14.63;;;9.80;;
1885;SDS011;943;51.568;6.998;2023-03-01T14:12:26;9.77;;;6.97;;
1885;SDS011;943;51.568;6.998;2023-03-01T14:15:27;11.83;;;8.30;;
1885;SDS011;943;51.568;6.998;2023-03-01T14:18:18;12.57;;;8.33;;
1885;SDS011;943;51.568;6.998;2023-03-01T14:21:29;9.50;;;7.13;;
1885;SDS011;943;51.568;6.998;2023-03-01T14:23:57;10.10;;;6.10;;
1885;SDS011;943;51.568;6.998;2023-03-01T14:26:26;11.67;;;6.50;;
1885;SDS011;943;51.568;6.998;2023-03-01T14:28:53;10.63;;;7.97;;
1885;SDS011;943;51.568;6.998;2023-03-01T14:34:20;13.30;;;8.40;;
1885;SDS011;943;51.568;6.998;2023-03-01T14:36:51;10.03;;;6.77;;
1885;SDS011;943;51.568;6.998;2023-03-01T14:39:22;12.53;;;7.40;;
1885;SDS011;943;51.568;6.998;2023-03-01T14:41:56;10.83;;;7.80;;
1885;SDS011;943;51.568;6.998;2023-03-01T14:44:45;11.67;;;7.00;;
1885;SDS011;943;51.568;6.998;2023-03-01T14:47:26;11.20;;;7.23;;
1885;SDS011;943;51.568;6.998;2023-03-01T14:50:07;11.17;;;7.40;;
1885;SDS011;943;51.568;6.998;2023-03-01T14:53:03;13.57;;;7.30;;
1885;SDS011;943;51.568;6.998;2023-03-01T14:55:48;10.30;;;7.07;;
1885;SDS011;943;51.568;6.998;2023-03-01T14:58:33;12.43;;;7.00;;
1885;SDS011;943;51.568;6.998;2023-03-01T15:01:04;14.50;;;7.60;;
1885;SDS011;943;51.568;6.998;2023-03-01T15:03:38;9.77;;;7.27;;
1885;SDS011;943;51.568;6.998;2023-03-01T15:06:17;8.63;;;6.90;;
1885;SDS011;943;51.568;6.998;2023-03-01T15:08:51;10.37;;;6.50;;
1885;SDS011;943;51.568;6.998;2023-03-01T15:11:26;11.20;;;6.83;;
1885;SDS011;943;51.568;6.998;2023-03-01T15:13:59;13.53;;;8.10;;
1885;SDS011;943;51.568;6.998;2023-03-01T15:16:29;14.63;;;7.23;;
1885;SDS011;943;51.568;6.998;2023-03-01T15:19:15;12.43;;;6.60;;
1885;SDS011;943;51.568;6.998;2023-03-01T15:21:46;9.97;;;6.80;;
1885;SDS011;943;51.568;6.998;2023-03-01T15:24:17;11.27;;;6.90;;
1885;SDS011;943;51.568;6.998;2023-03-01T15:27:00;9.60;;;6.37;;
1885;SDS011;943;51.568;6.998;2023-03-01T15:29:33;10.30;;;5.90;;
1885;SDS011;943;51.568;6.998;2023-03-01T15:32:25;9.70;;;6.70;;
1885;SDS011;943;51.568;6.998;2023-03-01T15:38:28;11.43;;;7.27;;
1885;SDS011;943;51.568;6.998;2023-03-01T15:41:28;12.20;;;7.27;;
1885;SDS011;943;51.568;6.998;2023-03-01T15:44:28;13.80;;;7.60;;
1885;SDS011;943;51.568;6.998;2023-03-01T15:47:39;9.60;;;6.40;;
1885;SDS011;943;51.568;6.998;2023-03-01T15:50:22;13.07;;;8.60;;
1885;SDS011;943;51.568;6.998;2023-03-01T15:53:05;9.50;;;7.63;;
1885;SDS011;943;51.568;6.998;2023-03-01T15:55:42;13.10;;;7.53;;
1885;SDS011;943;51.568;6.998;2023-03-01T15:58:17;12.20;;;8.00;;
1885;SDS011;943;51.568;6.998;2023-03-01T16:00:51;10.10;;;6.17;;
1885;SDS011;943;51.568;6.998;2023-03-01T16:03:28;10.47;;;7.00;;
1885;SDS011;943;51.568;6.998;2023-03-01T16:05:58;11.80;;;8.00;;
1885;SDS011;943;51.568;6.998;2023-03-01T16:08:30;11.50;;;7.10;;
1885;SDS011;943;51.568;6.998;2023-03-01T16:10:59;11.50;;;7.53;;
1885;SDS011;943;51.568;6.998;2023-03-01T16:13:31;12.00;;;7.60;;
1885;SDS011;943;51.568;6.998;2023-03-01T16:16:00;12.77;;;8.77;;
1885;SDS011;943;51.568;6.998;2023-03-01T16:18:34;12.70;;;8.10;;
1885;SDS011;943;51.568;6.998;2023-03-01T16:21:06;9.60;;;7.03;;
1885;SDS011;943;51.568;6.998;2023-03-01T16:23:50;10.50;;;8.00;;
1885;SDS011;943;51.568;6.998;2023-03-01T16:26:20;10.83;;;7.37;;
1885;SDS011;943;51.568;6.998;2023-03-01T16:28:49;9.17;;;6.00;;
1885;SDS011;943;51.568;6.998;2023-03-01T16:31:24;10.87;;;7.80;;
1885;SDS011;943;51.568;6.998;2023-03-01T16:33:57;15.87;;;7.97;;
1885;SDS011;943;51.568;6.998;2023-03-01T16:36:26;10.00;;;7.50;;
1885;SDS011;943;51.568;6.998;2023-03-01T16:38:55;10.23;;;6.30;;
1885;SDS011;943;51.568;6.998;2023-03-01T16:41:27;12.20;;;7.23;;
1885;SDS011;943;51.568;6.998;2023-03-01T16:43:56;11.33;;;7.70;;
1885;SDS011;943;51.568;6.998;2023-03-01T16:46:25;14.50;;;8.10;;
1885;SDS011;943;51.568;6.998;2023-03-01T16:48:56;14.13;;;7.60;;
1885;SDS011;943;51.568;6.998;2023-03-01T16:51:24;10.30;;;6.70;;
1885;SDS011;943;51.568;6.998;2023-03-01T16:53:52;11.63;;;6.63;;
1885;SDS011;943;51.568;6.998;2023-03-01T16:56:20;10.30;;;7.97;;
1885;SDS011;943;51.568;6.998;2023-03-01T16:58:48;12.87;;;6.67;;
1885;SDS011;943;51.568;6.998;2023-03-01T17:01:17;11.67;;;7.40;;
1885;SDS011;943;51.568;6.998;2023-03-01T17:03:51;11.20;;;7.10;;
1885;SDS011;943;51.568;6.998;2023-03-01T17:06:20;11.40;;;7.10;;
1885;SDS011;943;51.568;6.998;2023-03-01T17:08:51;10.73;;;6.30;;
1885;SDS011;943;51.568;6.998;2023-03-01T17:11:19;12.53;;;7.07;;
1885;SDS011;943;51.568;6.998;2023-03-01T17:13:47;12.00;;;7.90;;
1885;SDS011;943;51.568;6.998;2023-03-01T17:16:17;16.23;;;7.63;;
1885;SDS011;943;51.568;6.998;2023-03-01T17:18:47;10.20;;;6.90;;
1885;SDS011;943;51.568;6.998;2023-03-01T17:21:16;10.63;;;7.20;;
1885;SDS011;943;51.568;6.998;2023-03-01T17:23:44;11.97;;;6.60;;
1885;SDS011;943;51.568;6.998;2023-03-01T17:26:13;10.77;;;6.93;;
1885;SDS011;943;51.568;6.998;2023-03-01T17:28:42;13.20;;;8.37;;
1885;SDS011;943;51.568;6.998;2023-03-01T17:31:10;15.03;;;7.00;;
1885;SDS011;943;51.568;6.998;2023-03-01T17:33:38;16.30;;;7.77;;
1885;SDS011;943;51.568;6.998;2023-03-01T17:36:06;13.73;;;7.73;;
1885;SDS011;943;51.568;6.998;2023-03-01T17:38:34;17.63;;;8.20;;
1885;SDS011;943;51.568;6.998;2023-03-01T17:41:03;13.23;;;8.10;;
1885;SDS011;943;51.568;6.998;2023-03-01T17:43:31;12.40;;;8.57;;